Time;durP1;ratioP1;P1;durP2;ratioP2;P2;SDS_P1;SDS_P2;PMS_P1;PMS_P2;Temp;Humidity;BMP_temperature;BMP_pressure;BME280_temperature;BME280_humidity;BME280_pressure;Samples;Min_cycle;Max_cycle;Signal;HPM_P1;HPM_P2
2022/09/03 00:01:17;;;;;;;0.90;0.90;;;;;;;;;;4991073;28;20259;-35
2022/09/03 00:03:46;;;;;;;0.90;0.90;;;;;;;;;;4990778;28;20225;-33
2022/09/03 00:06:16;;;;;;;2.33;1.00;;;;;;;;;;4991260;28;20202;-35
2022/09/03 00:08:47;;;;;;;0.93;0.93;;;;;;;;;;4985440;28;20230;-32
2022/09/03 00:11:17;;;;;;;1.93;1.10;;;;;;;;;;4990812;28;20203;-30
2022/09/03 00:13:46;;;;;;;0.90;0.90;;;;;;;;;;4989221;28;20207;-31
2022/09/03 00:16:14;;;;;;;1.33;1.00;;;;;;;;;;4986211;28;20213;-33
2022/09/03 00:18:43;;;;;;;0.90;0.80;;;;;;;;;;4990826;28;20236;-34
2022/09/03 00:21:12;;;;;;;2.37;1.00;;;;;;;;;;4991136;28;20663;-31
2022/09/03 00:23:42;;;;;;;2.63;1.23;;;;;;;;;;4982739;28;20209;-34
2022/09/03 00:26:19;;;;;;;2.03;1.10;;;;;;;;;;4985356;28;20216;-32
2022/09/03 00:28:48;;;;;;;1.33;1.00;;;;;;;;;;4988765;28;20223;-31
2022/09/03 00:31:17;;;;;;;1.23;0.97;;;;;;;;;;4981795;28;20201;-33
2022/09/03 00:33:46;;;;;;;1.87;1.20;;;;;;;;;;4990671;28;20271;-33
2022/09/03 00:36:15;;;;;;;1.20;1.10;;;;;;;;;;4990866;28;20215;-31
2022/09/03 00:38:43;;;;;;;1.10;1.00;;;;;;;;;;4986366;28;20236;-31
2022/09/03 00:41:15;;;;;;;0.93;0.93;;;;;;;;;;4990483;28;20209;-31
2022/09/03 00:43:54;;;;;;;2.30;1.13;;;;;;;;;;4988374;28;20204;-34
2022/09/03 00:46:24;;;;;;;1.03;1.03;;;;;;;;;;4989082;28;20209;-33
2022/09/03 00:49:00;;;;;;;1.10;1.00;;;;;;;;;;4985504;28;20243;-31
2022/09/03 00:51:32;;;;;;;1.40;1.30;;;;;;;;;;4986224;28;20210;-33
2022/09/03 00:54:03;;;;;;;2.50;0.90;;;;;;;;;;4989943;28;20209;-31
2022/09/03 00:56:35;;;;;;;3.13;1.13;;;;;;;;;;4990158;28;20214;-33
2022/09/03 00:59:14;;;;;;;1.73;1.00;;;;;;;;;;4982502;28;20204;-31
2022/09/03 01:01:44;;;;;;;0.80;0.80;;;;;;;;;;4985006;28;20204;-30
2022/09/03 01:04:21;;;;;;;1.23;1.00;;;;;;;;;;4981777;28;20212;-33
2022/09/03 01:06:52;;;;;;;1.93;1.17;;;;;;;;;;4989981;28;20204;-33
2022/09/03 01:09:30;;;;;;;1.10;1.00;;;;;;;;;;4986262;28;20208;-34
2022/09/03 01:12:00;;;;;;;1.10;1.10;;;;;;;;;;4986562;28;20270;-34
2022/09/03 01:14:33;;;;;;;1.20;1.00;;;;;;;;;;4980571;28;20212;-32
2022/09/03 01:17:03;;;;;;;1.20;1.10;;;;;;;;;;4985967;28;20314;-33
2022/09/03 01:19:40;;;;;;;0.90;0.90;;;;;;;;;;4984960;28;20210;-33
2022/09/03 01:22:19;;;;;;;2.40;1.10;;;;;;;;;;4981035;28;20200;-35
2022/09/03 01:25:04;;;;;;;2.33;1.10;;;;;;;;;;4982957;28;20232;-33
2022/09/03 01:27:37;;;;;;;0.80;0.80;;;;;;;;;;4990176;28;20307;-33
2022/09/03 01:30:06;;;;;;;1.80;1.10;;;;;;;;;;4978606;28;20212;-32
2022/09/03 01:32:37;;;;;;;1.83;1.13;;;;;;;;;;4988637;28;20212;-31
2022/09/03 01:35:09;;;;;;;1.20;0.73;;;;;;;;;;4989539;28;20231;-35
2022/09/03 01:37:41;;;;;;;1.20;1.10;;;;;;;;;;4984302;28;20230;-32
2022/09/03 01:40:15;;;;;;;1.00;0.90;;;;;;;;;;4980764;28;20213;-33
2022/09/03 01:42:47;;;;;;;1.53;1.00;;;;;;;;;;4989613;28;20204;-34
2022/09/03 01:45:28;;;;;;;2.10;1.17;;;;;;;;;;4981368;28;20231;-32
2022/09/03 01:48:01;;;;;;;2.10;1.10;;;;;;;;;;4993217;28;20231;-31
2022/09/03 01:50:35;;;;;;;1.63;1.13;;;;;;;;;;4994036;28;20196;-30
2022/09/03 01:53:07;;;;;;;1.30;1.20;;;;;;;;;;4990982;28;20221;-34
2022/09/03 01:55:37;;;;;;;2.00;1.17;;;;;;;;;;4980554;28;20209;-33
2022/09/03 01:58:07;;;;;;;1.00;1.00;;;;;;;;;;4992721;28;20230;-31
2022/09/03 02:00:39;;;;;;;0.83;0.83;;;;;;;;;;4985701;28;20213;-33
2022/09/03 02:03:07;;;;;;;2.30;1.17;;;;;;;;;;4992631;28;20204;-31
2022/09/03 02:05:34;;;;;;;0.80;0.80;;;;;;;;;;4993064;28;20231;-31
2022/09/03 02:08:03;;;;;;;1.23;1.13;;;;;;;;;;4991026;28;20228;-33
2022/09/03 02:10:32;;;;;;;1.77;1.20;;;;;;;;;;4987485;28;20204;-32
2022/09/03 02:13:01;;;;;;;1.00;1.00;;;;;;;;;;4991613;28;20193;-32
2022/09/03 02:15:29;;;;;;;1.20;1.10;;;;;;;;;;4980740;28;20215;-33
2022/09/03 02:18:00;;;;;;;1.60;1.10;;;;;;;;;;4991776;28;20256;-36
2022/09/03 02:20:28;;;;;;;2.23;1.10;;;;;;;;;;4992962;28;20212;-34
2022/09/03 02:22:56;;;;;;;1.20;1.03;;;;;;;;;;4988044;28;20212;-31
2022/09/03 02:25:25;;;;;;;1.00;1.00;;;;;;;;;;4988691;28;20308;-36
2022/09/03 02:27:53;;;;;;;1.10;1.00;;;;;;;;;;4993251;28;20234;-30
2022/09/03 02:30:20;;;;;;;0.90;0.90;;;;;;;;;;4988505;28;20204;-35
2022/09/03 02:32:47;;;;;;;1.13;1.03;;;;;;;;;;4992773;28;20304;-30
2022/09/03 02:35:16;;;;;;;0.93;0.93;;;;;;;;;;4992616;28;20210;-34
2022/09/03 02:37:43;;;;;;;1.00;1.00;;;;;;;;;;4993096;28;20228;-34
2022/09/03 02:40:10;;;;;;;0.90;0.90;;;;;;;;;;4983424;28;20201;-34
2022/09/03 02:42:38;;;;;;;0.90;0.90;;;;;;;;;;4980331;28;20206;-34
2022/09/03 02:45:11;;;;;;;1.20;1.10;;;;;;;;;;4980774;28;20236;-29
2022/09/03 02:47:38;;;;;;;2.10;1.23;;;;;;;;;;4991334;28;20228;-34
2022/09/03 02:50:05;;;;;;;2.23;1.23;;;;;;;;;;4992966;28;20212;-35
2022/09/03 02:52:34;;;;;;;1.83;1.10;;;;;;;;;;4989263;28;20226;-31
2022/09/03 02:55:01;;;;;;;4.33;1.10;;;;;;;;;;4984923;28;20214;-33
2022/09/03 02:57:28;;;;;;;1.03;1.00;;;;;;;;;;4992623;28;20220;-33
2022/09/03 02:59:55;;;;;;;1.30;0.90;;;;;;;;;;4988193;28;20212;-35
2022/09/03 03:02:22;;;;;;;4.13;1.03;;;;;;;;;;4992442;28;20216;-31
2022/09/03 03:04:49;;;;;;;1.10;1.10;;;;;;;;;;4991971;28;20217;-31
2022/09/03 03:07:16;;;;;;;1.20;1.13;;;;;;;;;;4992600;28;20224;-31
2022/09/03 03:09:45;;;;;;;1.20;1.10;;;;;;;;;;4987716;28;20211;-32
2022/09/03 03:12:12;;;;;;;3.53;1.10;;;;;;;;;;4992366;28;20200;-32
2022/09/03 03:14:39;;;;;;;1.13;1.03;;;;;;;;;;4981071;28;20207;-31
2022/09/03 03:17:06;;;;;;;1.30;1.30;;;;;;;;;;4990714;28;20227;-32
2022/09/03 03:19:33;;;;;;;1.40;1.30;;;;;;;;;;4992562;28;20201;-35
2022/09/03 03:22:00;;;;;;;1.40;1.30;;;;;;;;;;4990747;28;20208;-34
2022/09/03 03:24:27;;;;;;;1.27;1.17;;;;;;;;;;4984355;28;20200;-32
2022/09/03 03:26:58;;;;;;;1.10;1.10;;;;;;;;;;4992408;28;20240;-32
2022/09/03 03:29:25;;;;;;;1.17;1.10;;;;;;;;;;4989635;28;20200;-35
2022/09/03 03:31:53;;;;;;;0.97;0.97;;;;;;;;;;4990431;28;20208;-29
2022/09/03 03:34:20;;;;;;;1.23;1.10;;;;;;;;;;4992038;28;20200;-34
2022/09/03 03:36:47;;;;;;;1.30;1.20;;;;;;;;;;4991938;28;20239;-32
2022/09/03 03:39:14;;;;;;;1.40;1.20;;;;;;;;;;4984680;28;20222;-33
2022/09/03 03:41:41;;;;;;;1.97;1.20;;;;;;;;;;4982336;28;20212;-33
2022/09/03 03:44:10;;;;;;;1.50;0.90;;;;;;;;;;4986451;28;20196;-33
2022/09/03 03:46:38;;;;;;;1.30;1.20;;;;;;;;;;4987608;28;20236;-32
2022/09/03 03:49:06;;;;;;;1.57;1.03;;;;;;;;;;4991573;28;20208;-34
2022/09/03 03:51:33;;;;;;;1.40;1.30;;;;;;;;;;4991614;28;20263;-36
2022/09/03 03:54:00;;;;;;;1.20;1.10;;;;;;;;;;4985702;28;20209;-31
2022/09/03 03:56:28;;;;;;;1.07;1.07;;;;;;;;;;4987116;28;20231;-32
2022/09/03 03:58:55;;;;;;;0.90;0.90;;;;;;;;;;4987546;28;20228;-31
2022/09/03 04:01:24;;;;;;;1.10;1.10;;;;;;;;;;4985038;28;20205;-31
2022/09/03 04:03:53;;;;;;;3.00;1.13;;;;;;;;;;4991159;28;20216;-34
2022/09/03 04:06:21;;;;;;;1.10;1.03;;;;;;;;;;4990335;28;20267;-29
2022/09/03 04:08:50;;;;;;;0.87;0.87;;;;;;;;;;4982068;28;20236;-36
2022/09/03 04:11:18;;;;;;;1.17;1.10;;;;;;;;;;4986725;28;20659;-33
2022/09/03 04:13:45;;;;;;;1.50;1.20;;;;;;;;;;4988064;28;20212;-33
2022/09/03 04:16:13;;;;;;;1.53;1.30;;;;;;;;;;4988877;28;20215;-33
2022/09/03 04:18:42;;;;;;;1.30;1.20;;;;;;;;;;4991101;28;20235;-35
2022/09/03 04:21:10;;;;;;;1.93;1.20;;;;;;;;;;4991649;28;20219;-32
2022/09/03 04:23:39;;;;;;;1.30;1.20;;;;;;;;;;4982428;28;20216;-32
2022/09/03 04:26:07;;;;;;;0.80;0.80;;;;;;;;;;5236428;22;20214;-39
2022/09/03 04:28:34;;;;;;;1.20;1.03;;;;;;;;;;5029468;28;20219;-35
2022/09/03 04:31:02;;;;;;;3.07;1.00;;;;;;;;;;5022833;28;20229;-37
2022/09/03 04:33:29;;;;;;;1.57;1.30;;;;;;;;;;5030235;28;20756;-34
2022/09/03 04:36:05;;;;;;;2.03;1.40;;;;;;;;;;5030537;28;20210;-32
2022/09/03 04:38:32;;;;;;;1.13;1.03;;;;;;;;;;5029000;28;20215;-34
2022/09/03 04:40:59;;;;;;;1.00;0.90;;;;;;;;;;5025247;28;20437;-37
2022/09/03 04:43:27;;;;;;;1.40;1.00;;;;;;;;;;5030802;28;20269;-37
2022/09/03 04:45:57;;;;;;;2.50;1.30;;;;;;;;;;5020922;28;20861;-40
2022/09/03 04:48:24;;;;;;;1.80;1.20;;;;;;;;;;5031500;28;20216;-34
2022/09/03 04:50:51;;;;;;;1.17;1.17;;;;;;;;;;5033052;28;20230;-37
2022/09/03 04:53:19;;;;;;;3.27;1.90;;;;;;;;;;5019961;28;20210;-39
2022/09/03 04:55:46;;;;;;;1.30;1.20;;;;;;;;;;5023820;28;20211;-35
2022/09/03 04:58:13;;;;;;;1.10;1.10;;;;;;;;;;5030255;28;20226;-33
2022/09/03 05:00:41;;;;;;;1.37;1.10;;;;;;;;;;5020339;28;20218;-34
2022/09/03 05:03:08;;;;;;;1.50;1.33;;;;;;;;;;5029739;28;20213;-37
2022/09/03 05:05:35;;;;;;;1.30;1.20;;;;;;;;;;5032609;28;20231;-35
2022/09/03 05:08:02;;;;;;;1.20;1.20;;;;;;;;;;5028896;28;20274;-38
2022/09/03 05:10:31;;;;;;;0.90;0.90;;;;;;;;;;5028191;28;20202;-38
2022/09/03 05:12:59;;;;;;;1.90;1.17;;;;;;;;;;5029213;28;20207;-36
2022/09/03 05:15:26;;;;;;;3.13;1.43;;;;;;;;;;5022414;28;20224;-38
2022/09/03 05:17:56;;;;;;;1.90;1.57;;;;;;;;;;5031701;28;20253;-32
2022/09/03 05:20:23;;;;;;;2.00;1.20;;;;;;;;;;5032569;28;20209;-36
2022/09/03 05:22:51;;;;;;;2.17;1.30;;;;;;;;;;5032153;28;20258;-35
2022/09/03 05:25:18;;;;;;;1.40;1.30;;;;;;;;;;5113185;22;20226;-33
2022/09/03 05:27:47;;;;;;;2.33;1.30;;;;;;;;;;5017192;28;20223;-35
2022/09/03 05:30:14;;;;;;;1.77;1.33;;;;;;;;;;4991776;28;20233;-37
2022/09/03 05:32:41;;;;;;;1.37;1.27;;;;;;;;;;5008894;28;20203;-37
2022/09/03 05:35:09;;;;;;;2.10;1.20;;;;;;;;;;5009489;28;20199;-36
2022/09/03 05:37:37;;;;;;;1.03;1.00;;;;;;;;;;5004983;28;20314;-35
2022/09/03 05:40:04;;;;;;;2.47;1.27;;;;;;;;;;5007342;28;20286;-38
2022/09/03 05:42:37;;;;;;;1.10;1.10;;;;;;;;;;5020379;28;20272;-35
2022/09/03 05:45:08;;;;;;;2.30;1.20;;;;;;;;;;5005635;28;20215;-38
2022/09/03 05:47:36;;;;;;;1.87;1.53;;;;;;;;;;5009932;28;20231;-38
2022/09/03 05:50:03;;;;;;;1.50;1.40;;;;;;;;;;5009715;28;20407;-36
2022/09/03 05:52:30;;;;;;;1.53;1.30;;;;;;;;;;5009421;28;20207;-37
2022/09/03 05:54:57;;;;;;;1.90;1.30;;;;;;;;;;5001826;28;20229;-39
2022/09/03 05:57:24;;;;;;;2.57;1.20;;;;;;;;;;5005148;28;20227;-37
2022/09/03 05:59:52;;;;;;;1.90;1.40;;;;;;;;;;4998501;28;20212;-37
2022/09/03 06:02:20;;;;;;;2.73;1.40;;;;;;;;;;5008296;28;20212;-35
2022/09/03 06:04:48;;;;;;;3.70;1.30;;;;;;;;;;5009128;28;20270;-37
2022/09/03 06:07:15;;;;;;;1.70;1.30;;;;;;;;;;5000919;28;20235;-38
2022/09/03 06:09:42;;;;;;;2.80;1.47;;;;;;;;;;5001375;28;20204;-37
2022/09/03 06:12:09;;;;;;;2.47;1.20;;;;;;;;;;5009282;28;20200;-38
2022/09/03 06:14:36;;;;;;;3.17;1.50;;;;;;;;;;5004935;28;20203;-37
2022/09/03 06:17:03;;;;;;;1.83;1.37;;;;;;;;;;5007581;28;20239;-37
2022/09/03 06:19:32;;;;;;;1.63;1.40;;;;;;;;;;5009409;28;20341;-37
2022/09/03 06:21:59;;;;;;;1.40;1.30;;;;;;;;;;5009390;28;20207;-33
2022/09/03 06:24:28;;;;;;;2.07;1.60;;;;;;;;;;4999603;28;20211;-37
2022/09/03 06:26:55;;;;;;;1.50;1.40;;;;;;;;;;5007469;28;20234;-40
2022/09/03 06:29:23;;;;;;;2.57;1.17;;;;;;;;;;5002541;28;20224;-40
2022/09/03 06:31:50;;;;;;;2.40;1.43;;;;;;;;;;5003299;28;20207;-34
2022/09/03 06:34:18;;;;;;;5.37;1.97;;;;;;;;;;5012396;28;20270;-38
2022/09/03 06:36:46;;;;;;;4.37;1.87;;;;;;;;;;5007707;28;20578;-38
2022/09/03 06:39:13;;;;;;;1.97;1.60;;;;;;;;;;5003655;28;20211;-35
2022/09/03 06:41:42;;;;;;;1.60;1.23;;;;;;;;;;5016100;28;20203;-33
2022/09/03 06:44:11;;;;;;;1.53;1.43;;;;;;;;;;5006634;28;20647;-37
2022/09/03 06:46:41;;;;;;;4.10;1.80;;;;;;;;;;5010427;28;20305;-34
2022/09/03 06:49:08;;;;;;;1.73;1.50;;;;;;;;;;5014419;28;20236;-38
2022/09/03 06:51:38;;;;;;;2.90;1.40;;;;;;;;;;5014232;28;20226;-35
2022/09/03 06:54:07;;;;;;;1.77;1.33;;;;;;;;;;5008466;28;20254;-33
2022/09/03 06:56:35;;;;;;;5.10;1.80;;;;;;;;;;5012026;28;20231;-38
2022/09/03 06:59:05;;;;;;;2.27;1.87;;;;;;;;;;5011059;28;20204;-35
2022/09/03 07:01:32;;;;;;;1.70;1.60;;;;;;;;;;5011192;28;20211;-41
2022/09/03 07:04:00;;;;;;;1.60;1.50;;;;;;;;;;5011671;28;20487;-37
2022/09/03 07:06:28;;;;;;;2.57;1.50;;;;;;;;;;5012390;28;20227;-33
2022/09/03 07:08:56;;;;;;;1.90;1.37;;;;;;;;;;5008418;28;20231;-35
2022/09/03 07:11:26;;;;;;;3.23;1.80;;;;;;;;;;5012209;28;20255;-37
2022/09/03 07:13:54;;;;;;;2.00;1.57;;;;;;;;;;5008018;28;20295;-33
2022/09/03 07:16:22;;;;;;;1.90;1.30;;;;;;;;;;5009846;28;20196;-37
2022/09/03 07:18:50;;;;;;;2.17;1.70;;;;;;;;;;5011599;28;20232;-37
2022/09/03 07:21:18;;;;;;;2.60;1.50;;;;;;;;;;5012048;28;20212;-38
2022/09/03 07:23:45;;;;;;;2.00;1.70;;;;;;;;;;5007681;28;20600;-38
2022/09/03 07:26:13;;;;;;;2.33;1.70;;;;;;;;;;5008160;28;20226;-34
2022/09/03 07:28:44;;;;;;;2.73;1.63;;;;;;;;;;5008735;28;20228;-35
2022/09/03 07:31:13;;;;;;;1.90;1.80;;;;;;;;;;5004490;28;20239;-36
2022/09/03 07:33:41;;;;;;;1.70;1.53;;;;;;;;;;5011649;28;20269;-38
2022/09/03 07:36:09;;;;;;;2.00;1.80;;;;;;;;;;5011907;28;20299;-35
2022/09/03 07:38:36;;;;;;;11.43;2.57;;;;;;;;;;5002175;28;20232;-38
2022/09/03 07:41:04;;;;;;;1.43;1.33;;;;;;;;;;5012685;28;20207;-37
2022/09/03 07:43:34;;;;;;;1.70;1.60;;;;;;;;;;5010244;28;20658;-38
2022/09/03 07:46:03;;;;;;;1.57;1.47;;;;;;;;;;5006988;28;20209;-36
2022/09/03 07:48:30;;;;;;;2.97;1.80;;;;;;;;;;5014257;28;20221;-38
2022/09/03 07:50:59;;;;;;;3.23;1.97;;;;;;;;;;5014776;28;20215;-35
2022/09/03 07:53:27;;;;;;;3.90;1.73;;;;;;;;;;5005002;28;20207;-39
2022/09/03 07:55:55;;;;;;;2.30;1.70;;;;;;;;;;5014522;28;20230;-36
2022/09/03 07:58:24;;;;;;;2.97;1.73;;;;;;;;;;5014977;28;20237;-34
2022/09/03 08:00:51;;;;;;;1.80;1.70;;;;;;;;;;5005226;28;20208;-40
2022/09/03 08:03:20;;;;;;;2.87;1.70;;;;;;;;;;5011921;28;20199;-35
2022/09/03 08:05:47;;;;;;;3.17;2.20;;;;;;;;;;5011550;28;20211;-32
2022/09/03 08:08:14;;;;;;;7.83;2.30;;;;;;;;;;5002598;28;20234;-38
2022/09/03 08:10:42;;;;;;;3.07;1.80;;;;;;;;;;5005174;28;20204;-39
2022/09/03 08:13:09;;;;;;;1.50;1.40;;;;;;;;;;5011590;28;20200;-37
2022/09/03 08:15:39;;;;;;;3.40;1.80;;;;;;;;;;5011462;28;20208;-38
2022/09/03 08:18:06;;;;;;;1.73;1.60;;;;;;;;;;5009783;28;20223;-33
2022/09/03 08:20:34;;;;;;;2.87;1.80;;;;;;;;;;5011530;28;20204;-33
2022/09/03 08:23:02;;;;;;;4.00;1.87;;;;;;;;;;5004099;28;20253;-35
2022/09/03 08:25:29;;;;;;;2.20;1.80;;;;;;;;;;5010019;28;20216;-36
2022/09/03 08:27:59;;;;;;;1.97;1.80;;;;;;;;;;5011162;28;20236;-33
2022/09/03 08:30:26;;;;;;;1.83;1.70;;;;;;;;;;5007673;28;20234;-38
2022/09/03 08:32:54;;;;;;;2.73;2.03;;;;;;;;;;5009475;28;20310;-35
2022/09/03 08:35:21;;;;;;;2.30;1.93;;;;;;;;;;5010806;28;20262;-37
2022/09/03 08:37:52;;;;;;;2.77;1.70;;;;;;;;;;5027677;28;20224;-37
2022/09/03 08:40:20;;;;;;;1.77;1.67;;;;;;;;;;4996679;28;20211;-37
2022/09/03 08:42:53;;;;;;;5.13;1.80;;;;;;;;;;5004674;28;20209;-36
2022/09/03 08:45:21;;;;;;;1.90;1.70;;;;;;;;;;5003198;28;20205;-37
2022/09/03 08:47:49;;;;;;;2.90;1.93;;;;;;;;;;5009457;28;20232;-40
2022/09/03 08:50:23;;;;;;;1.70;1.60;;;;;;;;;;5011322;28;20220;-36
2022/09/03 08:52:52;;;;;;;1.70;1.60;;;;;;;;;;5008948;28;20351;-38
2022/09/03 08:55:22;;;;;;;1.93;1.83;;;;;;;;;;5011274;28;20201;-38
2022/09/03 08:57:50;;;;;;;1.80;1.70;;;;;;;;;;5012681;28;20229;-32
2022/09/03 09:00:18;;;;;;;3.77;1.70;;;;;;;;;;5004112;28;20207;-36
2022/09/03 09:02:53;;;;;;;2.20;1.97;;;;;;;;;;5011621;28;20221;-38
2022/09/03 09:05:24;;;;;;;1.90;1.80;;;;;;;;;;5010586;28;20200;-37
2022/09/03 09:07:59;;;;;;;3.30;2.23;;;;;;;;;;5030249;28;20242;-36
2022/09/03 09:10:29;;;;;;;1.80;1.70;;;;;;;;;;4997458;28;20219;-35
2022/09/03 09:13:04;;;;;;;2.47;1.97;;;;;;;;;;5009615;28;20213;-34
2022/09/03 09:15:36;;;;;;;2.67;2.00;;;;;;;;;;5000038;28;20207;-37
2022/09/03 09:18:06;;;;;;;2.07;1.97;;;;;;;;;;5008358;28;20229;-36
2022/09/03 09:20:36;;;;;;;1.70;1.57;;;;;;;;;;5014658;28;20542;-35
2022/09/03 09:23:06;;;;;;;2.70;2.10;;;;;;;;;;5007816;28;20211;-39
2022/09/03 09:25:38;;;;;;;2.30;2.10;;;;;;;;;;5008777;28;20217;-37
2022/09/03 09:28:13;;;;;;;4.20;1.73;;;;;;;;;;5009753;28;20229;-37
2022/09/03 09:30:41;;;;;;;3.07;1.70;;;;;;;;;;5000204;28;20658;-36
2022/09/03 09:33:08;;;;;;;2.10;2.00;;;;;;;;;;5008122;28;20203;-38
2022/09/03 09:35:35;;;;;;;2.15;1.85;;;;;;;;;;5021735;28;20207;-32
2022/09/03 09:38:02;;;;;;;2.57;1.80;;;;;;;;;;5023398;28;20311;-36
2022/09/03 09:40:33;;;;;;;2.07;1.90;;;;;;;;;;4994854;28;20204;-32
2022/09/03 09:43:06;;;;;;;2.17;2.00;;;;;;;;;;5007521;28;20207;-36
2022/09/03 09:45:34;;;;;;;2.30;1.80;;;;;;;;;;5002785;28;20199;-37
2022/09/03 09:48:02;;;;;;;3.83;1.73;;;;;;;;;;5007658;28;20242;-38
2022/09/03 09:50:29;;;;;;;1.90;1.80;;;;;;;;;;5010718;28;20207;-36
2022/09/03 09:53:07;;;;;;;1.70;1.60;;;;;;;;;;5000987;28;20211;-37
2022/09/03 09:55:37;;;;;;;2.50;1.83;;;;;;;;;;5006359;28;20214;-35
2022/09/03 09:58:10;;;;;;;1.55;1.45;;;;;;;;;;5009445;28;20234;-36
2022/09/03 10:00:37;;;;;;;1.80;1.70;;;;;;;;;;5005267;28;20238;-35
2022/09/03 10:03:07;;;;;;;2.75;1.50;;;;;;;;;;5008713;28;20297;-35
2022/09/03 10:05:36;;;;;;;1.38;1.27;;;;;;;;;;5011582;28;20210;-35
2022/09/03 10:08:05;;;;;;;1.73;1.60;;;;;;;;;;5013635;28;20238;-34
2022/09/03 10:10:36;;;;;;;1.73;1.63;;;;;;;;;;5001964;28;20215;-36
2022/09/03 10:13:08;;;;;;;2.00;1.90;;;;;;;;;;5011460;28;20203;-36
2022/09/03 10:15:37;;;;;;;2.00;1.90;;;;;;;;;;5001724;28;20294;-37
2022/09/03 10:18:09;;;;;;;1.60;1.50;;;;;;;;;;5011611;28;20242;-39
2022/09/03 10:20:43;;;;;;;4.65;2.03;;;;;;;;;;5013350;28;20217;-35
2022/09/03 10:23:14;;;;;;;4.50;1.73;;;;;;;;;;5003685;28;20207;-35
2022/09/03 10:25:49;;;;;;;1.65;1.55;;;;;;;;;;5011912;28;20216;-36
2022/09/03 10:28:17;;;;;;;6.22;2.00;;;;;;;;;;5271251;22;20277;-30
2022/09/03 10:30:52;;;;;;;1.73;1.60;;;;;;;;;;5011716;28;20211;-32
2022/09/03 10:33:23;;;;;;;1.63;1.52;;;;;;;;;;5015238;28;20223;-28
2022/09/03 10:35:53;;;;;;;2.30;1.70;;;;;;;;;;5014798;28;20199;-32
2022/09/03 10:38:24;;;;;;;3.15;1.80;;;;;;;;;;4997044;28;20227;-31
2022/09/03 10:40:55;;;;;;;1.73;1.63;;;;;;;;;;4992037;28;20571;-29
2022/09/03 10:43:31;;;;;;;1.90;1.80;;;;;;;;;;4995552;28;20287;-33
2022/09/03 10:46:02;;;;;;;2.00;1.50;;;;;;;;;;4985027;28;20283;-30
2022/09/03 10:48:49;;;;;;;2.08;1.80;;;;;;;;;;4995239;28;20324;-31
2022/09/03 10:51:19;;;;;;;1.40;1.30;;;;;;;;;;4995472;28;20208;-31
2022/09/03 10:54:02;;;;;;;1.67;1.58;;;;;;;;;;4986778;28;20279;-28
2022/09/03 10:56:33;;;;;;;1.77;1.67;;;;;;;;;;4991968;28;20209;-30
2022/09/03 10:59:07;;;;;;;2.00;1.90;;;;;;;;;;4992914;28;20236;-30
2022/09/03 11:01:38;;;;;;;2.20;1.65;;;;;;;;;;4988073;28;20199;-29
2022/09/03 11:04:20;;;;;;;1.88;1.77;;;;;;;;;;4994628;28;20214;-29
2022/09/03 11:06:51;;;;;;;1.75;1.45;;;;;;;;;;4992990;28;20218;-28
2022/09/03 11:09:22;;;;;;;2.80;2.60;;;;;;;;;;4992511;28;20211;-31
2022/09/03 11:11:52;;;;;;;5.10;2.20;;;;;;;;;;4991608;28;20214;-31
2022/09/03 11:14:25;;;;;;;2.00;1.70;;;;;;;;;;4982141;28;20200;-33
2022/09/03 11:16:54;;;;;;;2.05;1.90;;;;;;;;;;4990875;28;20199;-34
2022/09/03 11:19:24;;;;;;;4.72;1.30;;;;;;;;;;5006356;28;20215;-29
2022/09/03 11:21:52;;;;;;;2.38;1.77;;;;;;;;;;4998254;28;20215;-30
2022/09/03 11:24:21;;;;;;;1.92;1.80;;;;;;;;;;4986388;28;20200;-30
2022/09/03 11:26:53;;;;;;;1.97;1.67;;;;;;;;;;4990751;28;20208;-27
2022/09/03 11:29:26;;;;;;;2.33;1.48;;;;;;;;;;4989915;28;20239;-32
2022/09/03 11:31:57;;;;;;;4.07;2.00;;;;;;;;;;4990600;28;20299;-32
2022/09/03 11:34:30;;;;;;;1.83;1.73;;;;;;;;;;5002866;28;20192;-33
2022/09/03 11:37:07;;;;;;;1.93;1.83;;;;;;;;;;4999002;28;20235;-29
2022/09/03 11:39:36;;;;;;;1.80;1.70;;;;;;;;;;4989134;28;20219;-30
2022/09/03 11:42:05;;;;;;;2.92;1.98;;;;;;;;;;5000088;28;20204;-33
2022/09/03 11:44:38;;;;;;;1.83;1.73;;;;;;;;;;4989763;28;20210;-30
2022/09/03 11:47:15;;;;;;;2.30;1.57;;;;;;;;;;4983005;28;20232;-31
2022/09/03 11:49:45;;;;;;;1.90;1.80;;;;;;;;;;4994874;28;20258;-34
2022/09/03 11:52:13;;;;;;;2.57;1.90;;;;;;;;;;4996899;28;20255;-35
2022/09/03 11:54:44;;;;;;;1.93;1.83;;;;;;;;;;4992211;28;20222;-29
2022/09/03 11:57:13;;;;;;;1.93;1.83;;;;;;;;;;4994101;28;20231;-30
2022/09/03 11:59:43;;;;;;;4.40;1.93;;;;;;;;;;4991260;28;20212;-31
2022/09/03 12:02:17;;;;;;;1.60;1.50;;;;;;;;;;4992446;28;20226;-29
2022/09/03 12:04:47;;;;;;;3.37;1.73;;;;;;;;;;4993833;28;20282;-31
2022/09/03 12:07:20;;;;;;;2.00;1.90;;;;;;;;;;4994243;28;20237;-30
2022/09/03 12:10:06;;;;;;;2.00;1.90;;;;;;;;;;4986380;28;20211;-31
2022/09/03 12:12:44;;;;;;;3.13;1.90;;;;;;;;;;4988512;28;20553;-30
2022/09/03 12:15:19;;;;;;;2.40;2.20;;;;;;;;;;4989028;28;20203;-29
2022/09/03 12:18:17;;;;;;;2.00;1.80;;;;;;;;;;4992697;28;20229;-29
2022/09/03 12:20:39;;;;;;;2.20;2.00;;;;;;;;;;4977143;28;20216;-35
2022/09/03 12:23:07;;;;;;;3.47;2.10;;;;;;;;;;4994298;28;20222;-33
2022/09/03 12:25:34;;;;;;;4.20;2.03;;;;;;;;;;4982092;28;20208;-31
2022/09/03 12:28:03;;;;;;;2.33;2.13;;;;;;;;;;4991593;28;20293;-29
2022/09/03 12:30:32;;;;;;;2.23;2.10;;;;;;;;;;4985286;28;20261;-28
2022/09/03 12:33:06;;;;;;;1.90;1.37;;;;;;;;;;4991818;28;20217;-30
2022/09/03 12:35:33;;;;;;;1.30;1.20;;;;;;;;;;4991224;28;20212;-32
2022/09/03 12:38:00;;;;;;;2.53;1.50;;;;;;;;;;4990968;28;20218;-32
2022/09/03 12:40:28;;;;;;;3.80;1.50;;;;;;;;;;4992328;28;20209;-30
2022/09/03 12:42:55;;;;;;;4.20;1.40;;;;;;;;;;4992949;28;20219;-33
2022/09/03 12:45:24;;;;;;;2.03;1.00;;;;;;;;;;4989424;28;20206;-29
2022/09/03 12:47:53;;;;;;;4.03;1.47;;;;;;;;;;4991259;28;20232;-29
2022/09/03 12:50:22;;;;;;;2.13;1.30;;;;;;;;;;4993486;28;20207;-31
2022/09/03 12:52:50;;;;;;;2.40;1.30;;;;;;;;;;4993893;28;20261;-29
2022/09/03 12:55:30;;;;;;;3.10;1.20;;;;;;;;;;4992086;28;20214;-28
2022/09/03 12:58:00;;;;;;;4.50;1.97;;;;;;;;;;4992933;28;20677;-30
2022/09/03 13:00:29;;;;;;;2.47;1.20;;;;;;;;;;4993357;28;20200;-33
2022/09/03 13:03:01;;;;;;;1.43;1.07;;;;;;;;;;4991023;28;20222;-29
2022/09/03 13:05:31;;;;;;;2.53;1.10;;;;;;;;;;4992965;28;20212;-29
2022/09/03 13:08:02;;;;;;;2.80;1.20;;;;;;;;;;4988217;28;20230;-30
2022/09/03 13:10:31;;;;;;;2.83;1.30;;;;;;;;;;4992631;28;20269;-34
2022/09/03 13:12:59;;;;;;;6.17;1.37;;;;;;;;;;4992625;28;20257;-34
2022/09/03 13:15:26;;;;;;;1.43;1.10;;;;;;;;;;4983390;28;20206;-29
2022/09/03 13:18:03;;;;;;;1.93;1.20;;;;;;;;;;4990710;28;20222;-32
2022/09/03 13:20:45;;;;;;;1.53;1.10;;;;;;;;;;4973585;28;20194;-28
2022/09/03 13:23:18;;;;;;;3.70;1.10;;;;;;;;;;4978813;28;20590;-30
2022/09/03 13:25:51;;;;;;;1.17;1.13;;;;;;;;;;4992008;28;20347;-30
2022/09/03 13:28:26;;;;;;;1.87;1.20;;;;;;;;;;4992426;28;20236;-31
2022/09/03 13:30:55;;;;;;;1.53;0.97;;;;;;;;;;4979459;28;20210;-32
2022/09/03 13:33:25;;;;;;;6.03;1.57;;;;;;;;;;4978795;28;20213;-32
2022/09/03 13:35:55;;;;;;;2.73;1.10;;;;;;;;;;4996809;28;20210;-30
2022/09/03 13:38:26;;;;;;;1.17;0.90;;;;;;;;;;4992953;28;20222;-33
2022/09/03 13:40:56;;;;;;;1.63;1.00;;;;;;;;;;4986495;28;20222;-31
2022/09/03 13:43:30;;;;;;;1.10;0.73;;;;;;;;;;4996505;28;20202;-28
2022/09/03 13:45:59;;;;;;;1.83;0.80;;;;;;;;;;4985577;28;20211;-29
2022/09/03 13:51:14;;;;;;;0.70;0.70;;;;;;;;;;4980812;28;20378;-31
2022/09/03 13:53:45;;;;;;;1.87;0.90;;;;;;;;;;4995148;28;20211;-31
2022/09/03 13:56:18;;;;;;;2.53;0.90;;;;;;;;;;4987055;28;20206;-29
2022/09/03 13:58:47;;;;;;;2.57;0.87;;;;;;;;;;4990110;28;20241;-30
2022/09/03 14:01:19;;;;;;;1.27;0.90;;;;;;;;;;4993556;28;20558;-30
2022/09/03 14:03:50;;;;;;;0.97;0.70;;;;;;;;;;4995604;28;20214;-31
2022/09/03 14:06:25;;;;;;;1.43;0.80;;;;;;;;;;4996224;28;20210;-30
2022/09/03 14:09:05;;;;;;;0.67;0.67;;;;;;;;;;4990642;28;20234;-32
2022/09/03 14:11:35;;;;;;;1.50;0.70;;;;;;;;;;4990313;28;20204;-29
2022/09/03 14:14:12;;;;;;;1.47;0.60;;;;;;;;;;4993049;28;20210;-31
2022/09/03 14:16:41;;;;;;;1.33;0.70;;;;;;;;;;4991211;28;20622;-31
2022/09/03 14:19:13;;;;;;;0.80;0.50;;;;;;;;;;4995748;28;20214;-32
2022/09/03 14:21:43;;;;;;;1.37;0.83;;;;;;;;;;4993449;28;20203;-32
2022/09/03 14:24:14;;;;;;;0.73;0.70;;;;;;;;;;4985973;28;20212;-33
2022/09/03 14:26:50;;;;;;;1.63;0.70;;;;;;;;;;5000262;28;20199;-27
2022/09/03 14:29:18;;;;;;;0.50;0.50;;;;;;;;;;5004628;28;20206;-32
2022/09/03 14:32:04;;;;;;;1.23;0.93;;;;;;;;;;4991338;28;20204;-30
2022/09/03 14:34:38;;;;;;;0.43;0.43;;;;;;;;;;4988976;28;20534;-30
2022/09/03 14:37:09;;;;;;;0.87;0.67;;;;;;;;;;4990587;28;20242;-30
2022/09/03 14:39:45;;;;;;;1.03;0.67;;;;;;;;;;4984608;28;20204;-30
2022/09/03 14:42:23;;;;;;;0.50;0.50;;;;;;;;;;5006459;28;20195;-32
2022/09/03 14:44:59;;;;;;;0.60;0.60;;;;;;;;;;4994722;28;20212;-31
2022/09/03 14:47:35;;;;;;;0.73;0.50;;;;;;;;;;4988161;28;20234;-33
2022/09/03 14:50:18;;;;;;;2.03;0.50;;;;;;;;;;4995260;28;20216;-33
2022/09/03 14:52:55;;;;;;;0.83;0.47;;;;;;;;;;4987491;28;20299;-32
2022/09/03 14:55:28;;;;;;;0.50;0.50;;;;;;;;;;4988266;28;20199;-28
2022/09/03 14:58:04;;;;;;;0.97;0.50;;;;;;;;;;4997721;28;20227;-31
2022/09/03 15:00:34;;;;;;;0.60;0.60;;;;;;;;;;4985884;28;20207;-31
2022/09/03 15:03:09;;;;;;;0.53;0.53;;;;;;;;;;4994452;28;20208;-31